sensor_id;sensor_type;location;lat;lon;timestamp;pressure;altitude;pressure_sealevel;temperature;humidity
26531;BME280;14201;43.188;24.160;2023-02-11T00:02:21;101682.69;;;-5.24;80.67
26531;BME280;14201;43.188;24.160;2023-02-11T00:04:47;101688.13;;;-5.16;80.53
26531;BME280;14201;43.188;24.160;2023-02-11T00:07:13;101689.38;;;-5.06;80.14
26531;BME280;14201;43.188;24.160;2023-02-11T00:09:38;101686.88;;;-5.25;80.75
26531;BME280;14201;43.188;24.160;2023-02-11T00:12:03;101683.13;;;-5.40;81.25
26531;BME280;14201;43.188;24.160;2023-02-11T00:14:29;101677.34;;;-5.20;80.81
26531;BME280;14201;43.188;24.160;2023-02-11T00:16:54;101682.47;;;-5.07;80.49
26531;BME280;14201;43.188;24.160;2023-02-11T00:19:19;101691.34;;;-4.98;80.17
26531;BME280;14201;43.188;24.160;2023-02-11T00:21:45;101689.56;;;-4.86;79.45
26531;BME280;14201;43.188;24.160;2023-02-11T00:24:11;101683.25;;;-4.83;78.53
26531;BME280;14201;43.188;24.160;2023-02-11T00:26:36;101682.41;;;-5.02;79.79
26531;BME280;14201;43.188;24.160;2023-02-11T00:29:02;101684.28;;;-5.06;80.28
26531;BME280;14201;43.188;24.160;2023-02-11T00:31:28;101687.09;;;-4.92;79.74
26531;BME280;14201;43.188;24.160;2023-02-11T00:33:53;101688.22;;;-4.90;79.71
26531;BME280;14201;43.188;24.160;2023-02-11T00:36:20;101688.47;;;-4.76;78.25
26531;BME280;14201;43.188;24.160;2023-02-11T00:38:47;101680.84;;;-4.76;78.27
26531;BME280;14201;43.188;24.160;2023-02-11T00:41:13;101685.31;;;-4.80;77.97
26531;BME280;14201;43.188;24.160;2023-02-11T00:43:38;101686.66;;;-4.64;77.70
26531;BME280;14201;43.188;24.160;2023-02-11T00:46:04;101687.09;;;-4.61;77.36
26531;BME280;14201;43.188;24.160;2023-02-11T00:48:30;101682.19;;;-4.72;77.73
26531;BME280;14201;43.188;24.160;2023-02-11T00:50:55;101683.69;;;-4.80;77.26
26531;BME280;14201;43.188;24.160;2023-02-11T00:53:21;101684.66;;;-4.85;77.17
26531;BME280;14201;43.188;24.160;2023-02-11T00:55:46;101675.38;;;-4.97;77.39
26531;BME280;14201;43.188;24.160;2023-02-11T00:58:12;101676.22;;;-4.91;77.02
26531;BME280;14201;43.188;24.160;2023-02-11T01:00:37;101678.16;;;-4.83;77.05
26531;BME280;14201;43.188;24.160;2023-02-11T01:03:02;101675.47;;;-4.71;76.51
26531;BME280;14201;43.188;24.160;2023-02-11T01:05:28;101678.59;;;-4.80;76.36
26531;BME280;14201;43.188;24.160;2023-02-11T01:07:53;101682.59;;;-5.00;77.03
26531;BME280;14201;43.188;24.160;2023-02-11T01:10:19;101674.63;;;-5.09;77.11
26531;BME280;14201;43.188;24.160;2023-02-11T01:12:44;101674.38;;;-5.23;77.42
26531;BME280;14201;43.188;24.160;2023-02-11T01:15:11;101667.38;;;-5.37;77.49
26531;BME280;14201;43.188;24.160;2023-02-11T01:17:37;101662.69;;;-5.65;78.11
26531;BME280;14201;43.188;24.160;2023-02-11T01:20:05;101665.63;;;-5.81;79.79
26531;BME280;14201;43.188;24.160;2023-02-11T01:22:31;101668.59;;;-5.96;81.11
26531;BME280;14201;43.188;24.160;2023-02-11T01:24:58;101663.41;;;-6.09;83.18
26531;BME280;14201;43.188;24.160;2023-02-11T01:27:23;101670.63;;;-6.12;83.88
26531;BME280;14201;43.188;24.160;2023-02-11T01:29:49;101668.75;;;-6.13;83.96
26531;BME280;14201;43.188;24.160;2023-02-11T01:32:14;101671.53;;;-6.11;83.56
26531;BME280;14201;43.188;24.160;2023-02-11T01:34:40;101670.50;;;-6.01;83.19
26531;BME280;14201;43.188;24.160;2023-02-11T01:37:05;101668.06;;;-5.94;82.30
26531;BME280;14201;43.188;24.160;2023-02-11T01:39:34;101674.00;;;-5.87;80.93
26531;BME280;14201;43.188;24.160;2023-02-11T01:41:59;101668.16;;;-5.99;80.78
26531;BME280;14201;43.188;24.160;2023-02-11T01:44:37;101669.22;;;-6.10;81.09
26531;BME280;14201;43.188;24.160;2023-02-11T01:47:04;101670.00;;;-5.98;80.34
26531;BME280;14201;43.188;24.160;2023-02-11T01:49:31;101672.81;;;-5.84;78.71
26531;BME280;14201;43.188;24.160;2023-02-11T01:54:45;101677.19;;;-6.25;78.53
26531;BME280;14201;43.188;24.160;2023-02-11T01:57:31;101675.25;;;-6.15;78.27
26531;BME280;14201;43.188;24.160;2023-02-11T02:00:14;101674.91;;;-6.05;78.52
26531;BME280;14201;43.188;24.160;2023-02-11T02:07:43;101664.94;;;-5.98;79.01
26531;BME280;14201;43.188;24.160;2023-02-11T02:10:12;101671.69;;;-6.04;79.62
26531;BME280;14201;43.188;24.160;2023-02-11T02:12:38;101667.09;;;-5.88;79.59
26531;BME280;14201;43.188;24.160;2023-02-11T02:15:20;101667.31;;;-5.87;79.22
26531;BME280;14201;43.188;24.160;2023-02-11T02:17:50;101669.34;;;-5.84;79.14
26531;BME280;14201;43.188;24.160;2023-02-11T02:23:44;101660.84;;;-5.66;79.10
26531;BME280;14201;43.188;24.160;2023-02-11T02:33:42;101656.47;;;-5.30;77.63
26531;BME280;14201;43.188;24.160;2023-02-11T02:36:23;101652.16;;;-5.19;77.08
26531;BME280;14201;43.188;24.160;2023-02-11T02:38:54;101653.78;;;-5.19;76.77
26531;BME280;14201;43.188;24.160;2023-02-11T02:41:22;101662.00;;;-5.15;76.34
26531;BME280;14201;43.188;24.160;2023-02-11T02:43:51;101652.84;;;-5.20;76.44
26531;BME280;14201;43.188;24.160;2023-02-11T02:48:45;101661.25;;;-5.26;76.58
26531;BME280;14201;43.188;24.160;2023-02-11T02:56:32;101651.72;;;-5.22;76.35
26531;BME280;14201;43.188;24.160;2023-02-11T03:01:33;101659.00;;;-5.30;76.27
26531;BME280;14201;43.188;24.160;2023-02-11T03:11:29;101660.81;;;-5.29;75.63
26531;BME280;14201;43.188;24.160;2023-02-11T03:13:55;101660.97;;;-5.22;74.73
26531;BME280;14201;43.188;24.160;2023-02-11T03:16:24;101662.97;;;-5.32;75.97
26531;BME280;14201;43.188;24.160;2023-02-11T03:19:01;101657.16;;;-5.31;76.35
26531;BME280;14201;43.188;24.160;2023-02-11T03:21:28;101652.94;;;-5.25;76.10
26531;BME280;14201;43.188;24.160;2023-02-11T03:23:59;101658.88;;;-5.06;75.12
26531;BME280;14201;43.188;24.160;2023-02-11T03:26:29;101661.09;;;-5.15;74.41
26531;BME280;14201;43.188;24.160;2023-02-11T03:33:55;101659.34;;;-5.59;73.41
26531;BME280;14201;43.188;24.160;2023-02-11T03:36:35;101646.63;;;-5.71;74.31
26531;BME280;14201;43.188;24.160;2023-02-11T03:39:06;101652.72;;;-5.82;74.98
26531;BME280;14201;43.188;24.160;2023-02-11T03:41:33;101647.97;;;-5.68;74.34
26531;BME280;14201;43.188;24.160;2023-02-11T03:43:59;101654.63;;;-5.87;74.02
26531;BME280;14201;43.188;24.160;2023-02-11T03:46:33;101654.03;;;-6.40;75.35
26531;BME280;14201;43.188;24.160;2023-02-11T03:49:03;101644.06;;;-6.57;75.41
26531;BME280;14201;43.188;24.160;2023-02-11T03:51:29;101643.13;;;-6.57;75.77
26531;BME280;14201;43.188;24.160;2023-02-11T03:53:56;101643.63;;;-6.60;76.14
26531;BME280;14201;43.188;24.160;2023-02-11T03:56:26;101641.91;;;-6.48;75.35
26531;BME280;14201;43.188;24.160;2023-02-11T03:58:52;101651.09;;;-6.43;75.21
26531;BME280;14201;43.188;24.160;2023-02-11T04:01:18;101641.75;;;-6.85;76.16
26531;BME280;14201;43.188;24.160;2023-02-11T04:03:43;101641.19;;;-7.36;77.68
26531;BME280;14201;43.188;24.160;2023-02-11T04:06:09;101646.25;;;-7.42;78.66
26531;BME280;14201;43.188;24.160;2023-02-11T04:08:34;101644.97;;;-7.21;78.34
26531;BME280;14201;43.188;24.160;2023-02-11T04:11:00;101646.63;;;-6.92;77.16
26531;BME280;14201;43.188;24.160;2023-02-11T04:13:25;101638.00;;;-6.76;76.48
26531;BME280;14201;43.188;24.160;2023-02-11T04:15:50;101646.09;;;-7.14;76.42
26531;BME280;14201;43.188;24.160;2023-02-11T04:18:16;101636.84;;;-7.48;77.49
26531;BME280;14201;43.188;24.160;2023-02-11T04:20:41;101623.78;;;-7.52;78.03
26531;BME280;14201;43.188;24.160;2023-02-11T04:23:06;101625.63;;;-7.56;78.54
26531;BME280;14201;43.188;24.160;2023-02-11T04:25:32;101623.66;;;-7.81;78.66
26531;BME280;14201;43.188;24.160;2023-02-11T04:27:57;101625.03;;;-7.78;80.02
26531;BME280;14201;43.188;24.160;2023-02-11T04:30:23;101620.53;;;-7.50;78.98
26531;BME280;14201;43.188;24.160;2023-02-11T04:32:48;101624.13;;;-7.32;78.17
26531;BME280;14201;43.188;24.160;2023-02-11T04:35:13;101625.38;;;-7.11;77.86
26531;BME280;14201;43.188;24.160;2023-02-11T04:37:39;101617.19;;;-6.91;76.56
26531;BME280;14201;43.188;24.160;2023-02-11T04:40:04;101621.84;;;-6.70;76.03
26531;BME280;14201;43.188;24.160;2023-02-11T04:42:30;101614.34;;;-6.82;76.33
26531;BME280;14201;43.188;24.160;2023-02-11T04:44:55;101616.56;;;-6.72;75.95
26531;BME280;14201;43.188;24.160;2023-02-11T04:47:21;101611.59;;;-6.59;74.62
26531;BME280;14201;43.188;24.160;2023-02-11T04:49:46;101600.69;;;-6.77;75.11
26531;BME280;14201;43.188;24.160;2023-02-11T04:52:15;101603.06;;;-6.60;75.12
26531;BME280;14201;43.188;24.160;2023-02-11T04:54:40;101596.81;;;-6.56;75.53
26531;BME280;14201;43.188;24.160;2023-02-11T04:57:05;101605.06;;;-6.51;75.27
26531;BME280;14201;43.188;24.160;2023-02-11T04:59:31;101602.28;;;-6.47;75.00
26531;BME280;14201;43.188;24.160;2023-02-11T05:01:56;101597.28;;;-6.53;75.56
26531;BME280;14201;43.188;24.160;2023-02-11T05:04:22;101598.13;;;-6.47;75.65
26531;BME280;14201;43.188;24.160;2023-02-11T05:06:48;101597.59;;;-6.39;75.29
26531;BME280;14201;43.188;24.160;2023-02-11T05:09:13;101589.28;;;-6.38;75.21
26531;BME280;14201;43.188;24.160;2023-02-11T05:11:39;101578.16;;;-6.32;74.98
26531;BME280;14201;43.188;24.160;2023-02-11T05:14:05;101584.97;;;-6.20;74.76
26531;BME280;14201;43.188;24.160;2023-02-11T05:16:30;101585.19;;;-6.24;74.91
26531;BME280;14201;43.188;24.160;2023-02-11T05:18:56;101584.19;;;-6.14;74.75
26531;BME280;14201;43.188;24.160;2023-02-11T05:21:21;101583.22;;;-6.08;74.26
26531;BME280;14201;43.188;24.160;2023-02-11T05:23:47;101591.56;;;-6.15;74.00
26531;BME280;14201;43.188;24.160;2023-02-11T05:26:13;101588.13;;;-6.16;74.23
26531;BME280;14201;43.188;24.160;2023-02-11T05:28:38;101594.16;;;-6.21;74.42
26531;BME280;14201;43.188;24.160;2023-02-11T05:31:04;101589.25;;;-6.14;74.68
26531;BME280;14201;43.188;24.160;2023-02-11T05:33:30;101585.41;;;-6.23;75.17
26531;BME280;14201;43.188;24.160;2023-02-11T05:35:59;101590.09;;;-6.26;75.53
26531;BME280;14201;43.188;24.160;2023-02-11T05:38:24;101582.63;;;-6.00;74.95
26531;BME280;14201;43.188;24.160;2023-02-11T05:40:50;101585.06;;;-5.95;74.96
26531;BME280;14201;43.188;24.160;2023-02-11T05:43:15;101582.63;;;-6.00;75.42
26531;BME280;14201;43.188;24.160;2023-02-11T05:45:40;101589.19;;;-6.08;76.19
26531;BME280;14201;43.188;24.160;2023-02-11T05:48:06;101586.19;;;-5.74;75.31
26531;BME280;14201;43.188;24.160;2023-02-11T05:50:31;101584.34;;;-5.57;75.31
26531;BME280;14201;43.188;24.160;2023-02-11T05:52:57;101585.75;;;-5.40;74.51
26531;BME280;14201;43.188;24.160;2023-02-11T05:55:22;101589.41;;;-5.38;74.30
26531;BME280;14201;43.188;24.160;2023-02-11T05:57:48;101589.25;;;-5.14;73.43
26531;BME280;14201;43.188;24.160;2023-02-11T06:00:13;101585.31;;;-5.12;73.45
26531;BME280;14201;43.188;24.160;2023-02-11T06:02:39;101584.13;;;-4.96;72.91
26531;BME280;14201;43.188;24.160;2023-02-11T06:05:04;101583.53;;;-4.87;73.23
26531;BME280;14201;43.188;24.160;2023-02-11T06:07:30;101584.81;;;-5.09;73.27
26531;BME280;14201;43.188;24.160;2023-02-11T06:09:55;101594.72;;;-5.24;73.89
26531;BME280;14201;43.188;24.160;2023-02-11T06:12:21;101591.81;;;-5.45;75.37
26531;BME280;14201;43.188;24.160;2023-02-11T06:14:47;101596.06;;;-5.51;75.92
26531;BME280;14201;43.188;24.160;2023-02-11T06:17:12;101596.94;;;-5.32;75.74
26531;BME280;14201;43.188;24.160;2023-02-11T06:19:37;101595.38;;;-5.06;74.72
26531;BME280;14201;43.188;24.160;2023-02-11T06:22:03;101589.47;;;-4.68;74.79
26531;BME280;14201;43.188;24.160;2023-02-11T06:24:28;101590.69;;;-4.72;74.28
26531;BME280;14201;43.188;24.160;2023-02-11T06:26:54;101597.28;;;-4.80;74.30
26531;BME280;14201;43.188;24.160;2023-02-11T06:29:19;101595.94;;;-4.83;74.89
26531;BME280;14201;43.188;24.160;2023-02-11T06:31:45;101594.53;;;-4.68;73.91
26531;BME280;14201;43.188;24.160;2023-02-11T06:34:10;101595.97;;;-4.45;73.93
26531;BME280;14201;43.188;24.160;2023-02-11T06:36:37;101601.56;;;-4.35;73.30
26531;BME280;14201;43.188;24.160;2023-02-11T06:39:03;101603.59;;;-4.19;73.10
26531;BME280;14201;43.188;24.160;2023-02-11T06:41:29;101602.59;;;-4.14;74.16
26531;BME280;14201;43.188;24.160;2023-02-11T06:43:54;101611.31;;;-4.12;73.13
26531;BME280;14201;43.188;24.160;2023-02-11T06:46:20;101601.63;;;-3.89;73.76
26531;BME280;14201;43.188;24.160;2023-02-11T06:48:45;101604.19;;;-3.56;72.89
26531;BME280;14201;43.188;24.160;2023-02-11T06:51:11;101603.88;;;-2.92;71.43
26531;BME280;14201;43.188;24.160;2023-02-11T06:53:38;101607.91;;;-2.67;70.23
26531;BME280;14201;43.188;24.160;2023-02-11T06:56:04;101615.69;;;-2.72;70.32
26531;BME280;14201;43.188;24.160;2023-02-11T06:58:30;101610.50;;;-2.87;71.48
26531;BME280;14201;43.188;24.160;2023-02-11T07:00:56;101606.78;;;-2.69;72.89
26531;BME280;14201;43.188;24.160;2023-02-11T07:03:21;101607.16;;;-2.39;70.20
26531;BME280;14201;43.188;24.160;2023-02-11T07:05:47;101606.31;;;-2.32;70.58
26531;BME280;14201;43.188;24.160;2023-02-11T07:08:12;101597.69;;;-2.40;70.12
26531;BME280;14201;43.188;24.160;2023-02-11T07:10:37;101599.22;;;-2.27;70.67
26531;BME280;14201;43.188;24.160;2023-02-11T07:13:03;101593.41;;;-2.19;70.09
26531;BME280;14201;43.188;24.160;2023-02-11T07:15:28;101589.16;;;-2.33;69.36
26531;BME280;14201;43.188;24.160;2023-02-11T07:17:54;101590.31;;;-2.24;71.10
26531;BME280;14201;43.188;24.160;2023-02-11T07:20:19;101590.66;;;-2.28;70.20
26531;BME280;14201;43.188;24.160;2023-02-11T07:22:44;101582.16;;;-2.14;72.94
26531;BME280;14201;43.188;24.160;2023-02-11T07:25:10;101583.28;;;-2.05;71.88
26531;BME280;14201;43.188;24.160;2023-02-11T07:27:35;101577.78;;;-2.08;70.65
26531;BME280;14201;43.188;24.160;2023-02-11T07:30:00;101584.59;;;-2.01;71.75
26531;BME280;14201;43.188;24.160;2023-02-11T07:32:26;101584.03;;;-1.99;70.96
26531;BME280;14201;43.188;24.160;2023-02-11T07:34:52;101581.88;;;-1.88;71.48
26531;BME280;14201;43.188;24.160;2023-02-11T07:37:17;101584.88;;;-1.78;70.45
26531;BME280;14201;43.188;24.160;2023-02-11T07:39:42;101585.97;;;-1.76;71.08
26531;BME280;14201;43.188;24.160;2023-02-11T07:42:08;101578.72;;;-1.44;69.41
26531;BME280;14201;43.188;24.160;2023-02-11T07:44:33;101579.88;;;-1.13;70.94
26531;BME280;14201;43.188;24.160;2023-02-11T07:47:01;101577.50;;;-1.05;69.61
26531;BME280;14201;43.188;24.160;2023-02-11T07:49:26;101579.88;;;-0.92;69.71
26531;BME280;14201;43.188;24.160;2023-02-11T07:51:51;101575.44;;;-0.64;69.24
26531;BME280;14201;43.188;24.160;2023-02-11T07:54:17;101564.66;;;-0.47;67.13
26531;BME280;14201;43.188;24.160;2023-02-11T07:56:43;101570.84;;;-0.38;68.43
26531;BME280;14201;43.188;24.160;2023-02-11T07:59:09;101570.56;;;-0.11;67.63
26531;BME280;14201;43.188;24.160;2023-02-11T08:01:35;101574.41;;;0.00;66.61
26531;BME280;14201;43.188;24.160;2023-02-11T08:04:01;101578.84;;;0.24;66.83
26531;BME280;14201;43.188;24.160;2023-02-11T08:06:28;101570.78;;;0.58;65.71
26531;BME280;14201;43.188;24.160;2023-02-11T08:08:54;101572.28;;;0.80;64.13
26531;BME280;14201;43.188;24.160;2023-02-11T08:11:26;101571.75;;;0.98;64.56
26531;BME280;14201;43.188;24.160;2023-02-11T08:13:52;101574.59;;;1.08;62.65
26531;BME280;14201;43.188;24.160;2023-02-11T08:16:22;101564.84;;;1.52;63.23
26531;BME280;14201;43.188;24.160;2023-02-11T08:18:48;101564.03;;;1.76;60.39
26531;BME280;14201;43.188;24.160;2023-02-11T08:21:14;101557.81;;;1.90;61.36
26531;BME280;14201;43.188;24.160;2023-02-11T08:23:40;101557.47;;;2.03;59.12
26531;BME280;14201;43.188;24.160;2023-02-11T08:26:10;101554.72;;;2.17;58.33
26531;BME280;14201;43.188;24.160;2023-02-11T08:28:36;101560.31;;;2.38;58.88
26531;BME280;14201;43.188;24.160;2023-02-11T08:31:09;101551.94;;;2.81;56.93
26531;BME280;14201;43.188;24.160;2023-02-11T08:33:34;101559.84;;;2.82;56.17
26531;BME280;14201;43.188;24.160;2023-02-11T08:36:00;101553.88;;;2.66;56.55
26531;BME280;14201;43.188;24.160;2023-02-11T08:38:26;101557.03;;;2.96;56.89
26531;BME280;14201;43.188;24.160;2023-02-11T08:40:51;101547.75;;;3.14;54.53
26531;BME280;14201;43.188;24.160;2023-02-11T08:43:17;101548.38;;;3.29;54.42
26531;BME280;14201;43.188;24.160;2023-02-11T08:45:43;101545.59;;;3.61;54.38
26531;BME280;14201;43.188;24.160;2023-02-11T08:48:08;101547.91;;;4.19;51.35
26531;BME280;14201;43.188;24.160;2023-02-11T08:50:34;101546.34;;;4.56;52.24
26531;BME280;14201;43.188;24.160;2023-02-11T08:53:03;101544.19;;;4.61;50.04
26531;BME280;14201;43.188;24.160;2023-02-11T08:55:28;101543.59;;;4.46;49.76
26531;BME280;14201;43.188;24.160;2023-02-11T08:57:54;101545.13;;;4.52;50.11
26531;BME280;14201;43.188;24.160;2023-02-11T09:00:19;101545.53;;;4.74;49.79
26531;BME280;14201;43.188;24.160;2023-02-11T09:02:45;101544.19;;;4.69;50.18
26531;BME280;14201;43.188;24.160;2023-02-11T09:05:10;101544.16;;;4.78;49.02
26531;BME280;14201;43.188;24.160;2023-02-11T09:07:36;101532.88;;;4.95;49.16
26531;BME280;14201;43.188;24.160;2023-02-11T09:10:01;101536.56;;;5.44;50.82
26531;BME280;14201;43.188;24.160;2023-02-11T09:12:27;101528.75;;;5.80;47.50
26531;BME280;14201;43.188;24.160;2023-02-11T09:14:53;101517.25;;;5.96;47.79
26531;BME280;14201;43.188;24.160;2023-02-11T09:17:18;101520.28;;;6.29;47.21
26531;BME280;14201;43.188;24.160;2023-02-11T09:19:44;101519.06;;;6.45;45.76
26531;BME280;14201;43.188;24.160;2023-02-11T09:22:10;101524.34;;;6.65;44.90
26531;BME280;14201;43.188;24.160;2023-02-11T09:24:35;101517.28;;;6.94;44.61
26531;BME280;14201;43.188;24.160;2023-02-11T09:27:01;101504.25;;;7.02;44.28
26531;BME280;14201;43.188;24.160;2023-02-11T09:29:27;101511.00;;;7.10;42.55
26531;BME280;14201;43.188;24.160;2023-02-11T09:31:52;101486.94;;;6.72;42.89
26531;BME280;14201;43.188;24.160;2023-02-11T09:34:18;101502.91;;;6.87;43.44
26531;BME280;14201;43.188;24.160;2023-02-11T09:36:43;101500.25;;;7.06;41.77
26531;BME280;14201;43.188;24.160;2023-02-11T09:39:15;101492.59;;;7.07;41.00
26531;BME280;14201;43.188;24.160;2023-02-11T09:41:47;101487.44;;;7.38;42.70
26531;BME280;14201;43.188;24.160;2023-02-11T09:44:20;101458.97;;;6.28;41.76
26531;BME280;14201;43.188;24.160;2023-02-11T09:46:53;101481.53;;;6.79;42.54
26531;BME280;14201;43.188;24.160;2023-02-11T09:49:24;101468.63;;;7.61;41.65
26531;BME280;14201;43.188;24.160;2023-02-11T09:52:05;101471.06;;;7.80;41.72
26531;BME280;14201;43.188;24.160;2023-02-11T09:54:44;101470.59;;;7.43;41.91
26531;BME280;14201;43.188;24.160;2023-02-11T09:57:13;101448.03;;;7.63;38.99
26531;BME280;14201;43.188;24.160;2023-02-11T09:59:39;101451.41;;;8.15;39.58
26531;BME280;14201;43.188;24.160;2023-02-11T10:02:19;101441.84;;;8.68;39.23
26531;BME280;14201;43.188;24.160;2023-02-11T10:15:44;101406.75;;;9.76;35.12
26531;BME280;14201;43.188;24.160;2023-02-11T10:23:34;101403.50;;;9.10;35.52
26531;BME280;14201;43.188;24.160;2023-02-11T10:26:02;101398.13;;;8.96;33.91
26531;BME280;14201;43.188;24.160;2023-02-11T10:28:30;101389.97;;;8.92;35.16
26531;BME280;14201;43.188;24.160;2023-02-11T10:31:00;101379.63;;;8.70;35.28
26531;BME280;14201;43.188;24.160;2023-02-11T10:35:58;101365.53;;;10.06;38.53
26531;BME280;14201;43.188;24.160;2023-02-11T10:38:24;101360.22;;;9.22;36.62
26531;BME280;14201;43.188;24.160;2023-02-11T10:40:50;101345.03;;;9.04;38.24
26531;BME280;14201;43.188;24.160;2023-02-11T10:43:18;101355.97;;;9.58;37.43
26531;BME280;14201;43.188;24.160;2023-02-11T10:45:50;101350.06;;;8.79;37.64
26531;BME280;14201;43.188;24.160;2023-02-11T10:53:38;101340.00;;;8.50;40.96
26531;BME280;14201;43.188;24.160;2023-02-11T10:56:05;101340.72;;;8.59;38.84
26531;BME280;14201;43.188;24.160;2023-02-11T10:58:52;101327.59;;;8.14;36.73
26531;BME280;14201;43.188;24.160;2023-02-11T11:01:19;101336.88;;;8.00;37.92
26531;BME280;14201;43.188;24.160;2023-02-11T11:03:49;101325.81;;;7.80;41.43
26531;BME280;14201;43.188;24.160;2023-02-11T11:06:15;101326.63;;;7.69;37.51
26531;BME280;14201;43.188;24.160;2023-02-11T11:08:52;101327.31;;;7.88;38.51
26531;BME280;14201;43.188;24.160;2023-02-11T11:11:20;101322.84;;;7.33;38.46
26531;BME280;14201;43.188;24.160;2023-02-11T11:13:54;101323.69;;;7.86;41.35
26531;BME280;14201;43.188;24.160;2023-02-11T11:16:31;101322.78;;;8.40;41.60
26531;BME280;14201;43.188;24.160;2023-02-11T11:21:39;101305.31;;;9.41;39.98
26531;BME280;14201;43.188;24.160;2023-02-11T11:24:25;101294.56;;;9.60;38.91
26531;BME280;14201;43.188;24.160;2023-02-11T11:26:58;101307.06;;;9.89;38.16
26531;BME280;14201;43.188;24.160;2023-02-11T11:32:30;101299.03;;;10.35;35.23
26531;BME280;14201;43.188;24.160;2023-02-11T11:35:06;101289.75;;;10.27;37.40
26531;BME280;14201;43.188;24.160;2023-02-11T11:37:35;101277.53;;;9.77;36.40
26531;BME280;14201;43.188;24.160;2023-02-11T11:40:02;101274.94;;;9.77;38.16
26531;BME280;14201;43.188;24.160;2023-02-11T11:42:31;101282.97;;;9.80;38.45
26531;BME280;14201;43.188;24.160;2023-02-11T11:47:26;101271.22;;;9.85;36.75
26531;BME280;14201;43.188;24.160;2023-02-11T11:52:42;101268.03;;;9.89;39.64
26531;BME280;14201;43.188;24.160;2023-02-11T11:55:16;101269.00;;;10.03;38.05
26531;BME280;14201;43.188;24.160;2023-02-11T11:57:42;101265.63;;;10.29;36.27
26531;BME280;14201;43.188;24.160;2023-02-11T12:00:15;101257.31;;;10.10;37.57
26531;BME280;14201;43.188;24.160;2023-02-11T12:05:26;101243.84;;;9.78;37.17
26531;BME280;14201;43.188;24.160;2023-02-11T12:13:22;101242.38;;;9.70;36.41
26531;BME280;14201;43.188;24.160;2023-02-11T12:15:54;101229.53;;;9.24;36.92
26531;BME280;14201;43.188;24.160;2023-02-11T12:18:41;101226.88;;;8.32;36.25
26531;BME280;14201;43.188;24.160;2023-02-11T12:21:45;101216.69;;;7.89;41.03
26531;BME280;14201;43.188;24.160;2023-02-11T12:24:35;101209.28;;;8.27;39.87
26531;BME280;14201;43.188;24.160;2023-02-11T12:30:15;101207.50;;;7.82;40.47
26531;BME280;14201;43.188;24.160;2023-02-11T12:38:04;101183.44;;;7.51;41.52
26531;BME280;14201;43.188;24.160;2023-02-11T12:40:49;101182.69;;;6.77;42.08
26531;BME280;14201;43.188;24.160;2023-02-11T12:43:23;101178.31;;;6.45;43.25
26531;BME280;14201;43.188;24.160;2023-02-11T12:48:20;101189.91;;;5.89;44.39
26531;BME280;14201;43.188;24.160;2023-02-11T12:58:54;101174.34;;;6.28;43.72
26531;BME280;14201;43.188;24.160;2023-02-11T13:01:22;101163.59;;;6.34;44.50
26531;BME280;14201;43.188;24.160;2023-02-11T13:04:06;101165.00;;;6.61;43.43
26531;BME280;14201;43.188;24.160;2023-02-11T13:06:42;101151.50;;;6.55;44.04
26531;BME280;14201;43.188;24.160;2023-02-11T13:09:19;101158.03;;;6.40;41.91
26531;BME280;14201;43.188;24.160;2023-02-11T13:11:50;101157.97;;;6.60;43.52
26531;BME280;14201;43.188;24.160;2023-02-11T13:14:23;101154.38;;;6.38;42.65
26531;BME280;14201;43.188;24.160;2023-02-11T13:16:52;101144.31;;;6.20;43.87
26531;BME280;14201;43.188;24.160;2023-02-11T13:22:17;101145.06;;;6.29;42.98
26531;BME280;14201;43.188;24.160;2023-02-11T13:24:58;101138.84;;;5.86;43.96
26531;BME280;14201;43.188;24.160;2023-02-11T13:27:46;101133.16;;;6.31;45.62
26531;BME280;14201;43.188;24.160;2023-02-11T13:30:27;101131.28;;;6.72;43.83
26531;BME280;14201;43.188;24.160;2023-02-11T13:38:16;101130.59;;;7.17;43.62
26531;BME280;14201;43.188;24.160;2023-02-11T13:40:43;101124.72;;;7.29;43.75
26531;BME280;14201;43.188;24.160;2023-02-11T13:43:21;101116.13;;;7.41;43.45
26531;BME280;14201;43.188;24.160;2023-02-11T13:45:49;101117.97;;;6.99;41.21
26531;BME280;14201;43.188;24.160;2023-02-11T13:48:23;101114.19;;;6.74;43.55
26531;BME280;14201;43.188;24.160;2023-02-11T13:50:52;101109.81;;;6.62;40.81
26531;BME280;14201;43.188;24.160;2023-02-11T13:53:19;101104.41;;;6.49;41.35
26531;BME280;14201;43.188;24.160;2023-02-11T13:55:47;101099.25;;;6.49;41.01
26531;BME280;14201;43.188;24.160;2023-02-11T14:06:25;101105.56;;;6.95;44.09
26531;BME280;14201;43.188;24.160;2023-02-11T14:09:35;101104.56;;;7.15;41.87
26531;BME280;14201;43.188;24.160;2023-02-11T14:12:23;101103.84;;;7.06;42.67
26531;BME280;14201;43.188;24.160;2023-02-11T14:15:35;101093.19;;;7.13;43.43
26531;BME280;14201;43.188;24.160;2023-02-11T14:17:52;101087.44;;;7.17;42.86
26531;BME280;14201;43.188;24.160;2023-02-11T14:20:33;101093.66;;;6.97;43.53
26531;BME280;14201;43.188;24.160;2023-02-11T14:23:00;101090.56;;;6.91;43.85
26531;BME280;14201;43.188;24.160;2023-02-11T14:25:30;101084.16;;;7.08;42.24
26531;BME280;14201;43.188;24.160;2023-02-11T14:41:48;101082.75;;;6.26;44.95
26531;BME280;14201;43.188;24.160;2023-02-11T14:44:21;101078.56;;;6.39;44.54
26531;BME280;14201;43.188;24.160;2023-02-11T14:46:49;101070.28;;;6.43;44.25
26531;BME280;14201;43.188;24.160;2023-02-11T14:49:30;101064.34;;;6.34;45.82
26531;BME280;14201;43.188;24.160;2023-02-11T14:52:03;101058.13;;;6.31;45.32
26531;BME280;14201;43.188;24.160;2023-02-11T14:54:32;101059.06;;;6.32;46.13
26531;BME280;14201;43.188;24.160;2023-02-11T14:57:17;101052.97;;;6.31;43.50
26531;BME280;14201;43.188;24.160;2023-02-11T15:00:01;101051.16;;;6.20;44.30
26531;BME280;14201;43.188;24.160;2023-02-11T15:02:32;101047.84;;;6.11;45.79
26531;BME280;14201;43.188;24.160;2023-02-11T15:07:47;101043.03;;;5.85;47.00